sensor_id;sensor_type;location;lat;lon;timestamp;P1;durP1;ratioP1;P2;durP2;ratioP2
4365;SDS011;2196;47.422;9.656;2023-07-13T00:02:14;2.53;;;2.33;;
4365;SDS011;2196;47.422;9.656;2023-07-13T00:04:41;2.73;;;2.17;;
4365;SDS011;2196;47.422;9.656;2023-07-13T00:07:08;2.07;;;1.97;;
4365;SDS011;2196;47.422;9.656;2023-07-13T00:09:37;1.97;;;1.87;;
4365;SDS011;2196;47.422;9.656;2023-07-13T00:12:04;2.43;;;2.23;;
4365;SDS011;2196;47.422;9.656;2023-07-13T00:14:47;2.53;;;2.43;;
4365;SDS011;2196;47.422;9.656;2023-07-13T00:17:14;2.70;;;2.50;;
4365;SDS011;2196;47.422;9.656;2023-07-13T00:19:41;2.43;;;2.23;;
4365;SDS011;2196;47.422;9.656;2023-07-13T00:22:08;3.23;;;2.50;;
4365;SDS011;2196;47.422;9.656;2023-07-13T00:24:36;2.00;;;1.90;;
4365;SDS011;2196;47.422;9.656;2023-07-13T00:27:06;2.97;;;2.77;;
4365;SDS011;2196;47.422;9.656;2023-07-13T00:29:34;2.50;;;2.40;;
4365;SDS011;2196;47.422;9.656;2023-07-13T00:32:01;2.83;;;2.63;;
4365;SDS011;2196;47.422;9.656;2023-07-13T00:34:29;3.70;;;3.40;;
4365;SDS011;2196;47.422;9.656;2023-07-13T00:36:56;3.20;;;3.00;;
4365;SDS011;2196;47.422;9.656;2023-07-13T00:39:23;2.53;;;2.20;;
4365;SDS011;2196;47.422;9.656;2023-07-13T00:41:51;2.70;;;2.50;;
4365;SDS011;2196;47.422;9.656;2023-07-13T00:44:19;2.00;;;1.90;;
4365;SDS011;2196;47.422;9.656;2023-07-13T00:46:48;1.93;;;1.80;;
4365;SDS011;2196;47.422;9.656;2023-07-13T00:49:16;2.80;;;2.60;;
4365;SDS011;2196;47.422;9.656;2023-07-13T00:51:46;2.47;;;2.37;;
4365;SDS011;2196;47.422;9.656;2023-07-13T00:54:17;3.83;;;2.40;;
4365;SDS011;2196;47.422;9.656;2023-07-13T00:56:48;2.53;;;2.43;;
4365;SDS011;2196;47.422;9.656;2023-07-13T00:59:19;2.43;;;2.33;;
4365;SDS011;2196;47.422;9.656;2023-07-13T01:01:47;2.93;;;2.70;;
4365;SDS011;2196;47.422;9.656;2023-07-13T01:04:15;1.77;;;1.73;;
4365;SDS011;2196;47.422;9.656;2023-07-13T01:06:42;2.27;;;2.10;;
4365;SDS011;2196;47.422;9.656;2023-07-13T01:09:11;2.73;;;1.93;;
4365;SDS011;2196;47.422;9.656;2023-07-13T01:11:38;1.60;;;1.50;;
4365;SDS011;2196;47.422;9.656;2023-07-13T01:14:06;1.77;;;1.70;;
4365;SDS011;2196;47.422;9.656;2023-07-13T01:16:35;2.77;;;2.40;;
4365;SDS011;2196;47.422;9.656;2023-07-13T01:19:06;2.23;;;2.13;;
4365;SDS011;2196;47.422;9.656;2023-07-13T01:21:40;2.60;;;2.40;;
4365;SDS011;2196;47.422;9.656;2023-07-13T01:24:08;1.90;;;1.80;;
4365;SDS011;2196;47.422;9.656;2023-07-13T01:26:35;1.90;;;1.80;;
4365;SDS011;2196;47.422;9.656;2023-07-13T01:29:02;3.17;;;3.00;;
4365;SDS011;2196;47.422;9.656;2023-07-13T01:31:29;2.30;;;2.20;;
4365;SDS011;2196;47.422;9.656;2023-07-13T01:33:56;5.10;;;2.50;;
4365;SDS011;2196;47.422;9.656;2023-07-13T01:36:23;2.60;;;2.47;;
4365;SDS011;2196;47.422;9.656;2023-07-13T01:38:52;2.00;;;1.90;;
4365;SDS011;2196;47.422;9.656;2023-07-13T01:41:19;2.43;;;2.27;;
4365;SDS011;2196;47.422;9.656;2023-07-13T01:43:46;2.30;;;1.73;;
4365;SDS011;2196;47.422;9.656;2023-07-13T01:46:13;2.67;;;2.47;;
4365;SDS011;2196;47.422;9.656;2023-07-13T01:48:40;1.97;;;1.87;;
4365;SDS011;2196;47.422;9.656;2023-07-13T01:51:06;1.80;;;1.70;;
4365;SDS011;2196;47.422;9.656;2023-07-13T01:53:33;1.53;;;1.53;;
4365;SDS011;2196;47.422;9.656;2023-07-13T01:56:02;2.10;;;2.00;;
4365;SDS011;2196;47.422;9.656;2023-07-13T01:58:29;2.37;;;2.20;;
4365;SDS011;2196;47.422;9.656;2023-07-13T02:00:55;2.43;;;2.33;;
4365;SDS011;2196;47.422;9.656;2023-07-13T02:03:22;2.43;;;2.13;;
4365;SDS011;2196;47.422;9.656;2023-07-13T02:05:49;2.47;;;2.13;;
4365;SDS011;2196;47.422;9.656;2023-07-13T02:08:16;2.63;;;2.47;;
4365;SDS011;2196;47.422;9.656;2023-07-13T02:10:44;6.57;;;2.30;;
4365;SDS011;2196;47.422;9.656;2023-07-13T02:13:12;2.00;;;1.90;;
4365;SDS011;2196;47.422;9.656;2023-07-13T02:15:39;1.60;;;1.57;;
4365;SDS011;2196;47.422;9.656;2023-07-13T02:18:06;1.87;;;1.77;;
4365;SDS011;2196;47.422;9.656;2023-07-13T02:20:33;2.33;;;2.23;;
4365;SDS011;2196;47.422;9.656;2023-07-13T02:23:00;4.10;;;1.97;;
4365;SDS011;2196;47.422;9.656;2023-07-13T02:25:27;2.10;;;1.90;;
4365;SDS011;2196;47.422;9.656;2023-07-13T02:27:54;2.00;;;1.90;;
4365;SDS011;2196;47.422;9.656;2023-07-13T02:30:22;3.10;;;2.90;;
4365;SDS011;2196;47.422;9.656;2023-07-13T02:32:50;2.77;;;2.53;;
4365;SDS011;2196;47.422;9.656;2023-07-13T02:35:17;2.17;;;2.07;;
4365;SDS011;2196;47.422;9.656;2023-07-13T02:37:44;2.03;;;1.93;;
4365;SDS011;2196;47.422;9.656;2023-07-13T02:40:11;2.63;;;2.53;;
4365;SDS011;2196;47.422;9.656;2023-07-13T02:42:38;2.33;;;2.20;;
4365;SDS011;2196;47.422;9.656;2023-07-13T02:45:06;2.43;;;2.27;;
4365;SDS011;2196;47.422;9.656;2023-07-13T02:47:39;2.40;;;2.30;;
4365;SDS011;2196;47.422;9.656;2023-07-13T02:50:07;2.47;;;2.27;;
4365;SDS011;2196;47.422;9.656;2023-07-13T02:52:34;2.67;;;2.47;;
4365;SDS011;2196;47.422;9.656;2023-07-13T02:55:01;2.43;;;2.33;;
4365;SDS011;2196;47.422;9.656;2023-07-13T02:57:28;2.63;;;2.43;;
4365;SDS011;2196;47.422;9.656;2023-07-13T02:59:56;3.83;;;3.63;;
4365;SDS011;2196;47.422;9.656;2023-07-13T03:02:23;4.07;;;2.97;;
4365;SDS011;2196;47.422;9.656;2023-07-13T03:04:54;3.83;;;2.53;;
4365;SDS011;2196;47.422;9.656;2023-07-13T03:07:21;5.97;;;3.57;;
4365;SDS011;2196;47.422;9.656;2023-07-13T03:09:48;2.70;;;2.60;;
4365;SDS011;2196;47.422;9.656;2023-07-13T03:12:15;2.67;;;2.53;;
4365;SDS011;2196;47.422;9.656;2023-07-13T03:14:42;3.50;;;3.27;;
4365;SDS011;2196;47.422;9.656;2023-07-13T03:17:09;3.07;;;2.87;;
4365;SDS011;2196;47.422;9.656;2023-07-13T03:19:36;2.90;;;2.70;;
4365;SDS011;2196;47.422;9.656;2023-07-13T03:22:04;3.87;;;2.70;;
4365;SDS011;2196;47.422;9.656;2023-07-13T03:24:32;2.60;;;1.97;;
4365;SDS011;2196;47.422;9.656;2023-07-13T03:27:00;3.03;;;2.33;;
4365;SDS011;2196;47.422;9.656;2023-07-13T03:29:27;2.83;;;2.73;;
4365;SDS011;2196;47.422;9.656;2023-07-13T03:31:54;3.00;;;2.80;;
4365;SDS011;2196;47.422;9.656;2023-07-13T03:34:21;2.80;;;2.60;;
4365;SDS011;2196;47.422;9.656;2023-07-13T03:36:48;5.10;;;3.33;;
4365;SDS011;2196;47.422;9.656;2023-07-13T03:39:16;3.23;;;2.93;;
4365;SDS011;2196;47.422;9.656;2023-07-13T03:41:43;2.90;;;2.63;;
4365;SDS011;2196;47.422;9.656;2023-07-13T03:44:11;7.10;;;2.87;;
4365;SDS011;2196;47.422;9.656;2023-07-13T03:46:38;3.00;;;2.73;;
4365;SDS011;2196;47.422;9.656;2023-07-13T03:49:05;2.50;;;2.37;;
4365;SDS011;2196;47.422;9.656;2023-07-13T03:51:32;3.50;;;3.20;;
4365;SDS011;2196;47.422;9.656;2023-07-13T03:53:59;2.77;;;2.57;;
4365;SDS011;2196;47.422;9.656;2023-07-13T03:56:29;2.13;;;2.03;;
4365;SDS011;2196;47.422;9.656;2023-07-13T03:58:58;3.13;;;2.93;;
4365;SDS011;2196;47.422;9.656;2023-07-13T04:01:25;3.63;;;3.07;;
4365;SDS011;2196;47.422;9.656;2023-07-13T04:03:52;3.53;;;3.23;;
4365;SDS011;2196;47.422;9.656;2023-07-13T04:06:20;3.50;;;3.30;;
4365;SDS011;2196;47.422;9.656;2023-07-13T04:08:51;8.67;;;3.17;;
4365;SDS011;2196;47.422;9.656;2023-07-13T04:11:20;3.03;;;2.90;;
4365;SDS011;2196;47.422;9.656;2023-07-13T04:13:50;3.83;;;3.53;;
4365;SDS011;2196;47.422;9.656;2023-07-13T04:16:18;5.33;;;4.00;;
4365;SDS011;2196;47.422;9.656;2023-07-13T04:18:46;2.97;;;2.77;;
4365;SDS011;2196;47.422;9.656;2023-07-13T04:21:14;4.13;;;3.83;;
4365;SDS011;2196;47.422;9.656;2023-07-13T04:23:41;5.03;;;4.53;;
4365;SDS011;2196;47.422;9.656;2023-07-13T04:26:08;7.83;;;4.20;;
4365;SDS011;2196;47.422;9.656;2023-07-13T04:28:35;3.57;;;3.37;;
4365;SDS011;2196;47.422;9.656;2023-07-13T04:31:04;3.93;;;3.70;;
4365;SDS011;2196;47.422;9.656;2023-07-13T04:33:31;3.50;;;3.07;;
4365;SDS011;2196;47.422;9.656;2023-07-13T04:35:59;4.60;;;3.30;;
4365;SDS011;2196;47.422;9.656;2023-07-13T04:38:27;6.20;;;3.30;;
4365;SDS011;2196;47.422;9.656;2023-07-13T04:40:56;3.33;;;3.23;;
4365;SDS011;2196;47.422;9.656;2023-07-13T04:43:24;3.43;;;3.13;;
4365;SDS011;2196;47.422;9.656;2023-07-13T04:45:52;4.00;;;3.70;;
4365;SDS011;2196;47.422;9.656;2023-07-13T04:48:20;3.47;;;3.27;;
4365;SDS011;2196;47.422;9.656;2023-07-13T04:50:53;3.50;;;3.30;;
4365;SDS011;2196;47.422;9.656;2023-07-13T04:53:21;3.23;;;2.93;;
4365;SDS011;2196;47.422;9.656;2023-07-13T04:55:48;3.67;;;3.47;;
4365;SDS011;2196;47.422;9.656;2023-07-13T04:58:15;4.03;;;3.23;;
4365;SDS011;2196;47.422;9.656;2023-07-13T05:00:42;3.43;;;3.10;;
4365;SDS011;2196;47.422;9.656;2023-07-13T05:03:09;4.37;;;3.50;;
4365;SDS011;2196;47.422;9.656;2023-07-13T05:05:37;3.87;;;3.57;;
4365;SDS011;2196;47.422;9.656;2023-07-13T05:08:04;4.97;;;4.47;;
4365;SDS011;2196;47.422;9.656;2023-07-13T05:10:32;4.33;;;3.97;;
4365;SDS011;2196;47.422;9.656;2023-07-13T05:12:59;4.23;;;3.93;;
4365;SDS011;2196;47.422;9.656;2023-07-13T05:15:26;4.20;;;3.90;;
4365;SDS011;2196;47.422;9.656;2023-07-13T05:17:53;4.83;;;4.43;;
4365;SDS011;2196;47.422;9.656;2023-07-13T05:20:20;3.53;;;3.43;;
4365;SDS011;2196;47.422;9.656;2023-07-13T05:22:48;4.37;;;3.97;;
4365;SDS011;2196;47.422;9.656;2023-07-13T05:25:15;4.10;;;3.90;;
4365;SDS011;2196;47.422;9.656;2023-07-13T05:27:42;5.13;;;4.43;;
4365;SDS011;2196;47.422;9.656;2023-07-13T05:30:12;6.20;;;4.97;;
4365;SDS011;2196;47.422;9.656;2023-07-13T05:32:39;5.27;;;4.17;;
4365;SDS011;2196;47.422;9.656;2023-07-13T05:35:06;5.10;;;4.70;;
4365;SDS011;2196;47.422;9.656;2023-07-13T05:37:34;4.37;;;4.10;;
4365;SDS011;2196;47.422;9.656;2023-07-13T05:40:03;4.77;;;4.27;;
4365;SDS011;2196;47.422;9.656;2023-07-13T05:42:30;4.93;;;4.23;;
4365;SDS011;2196;47.422;9.656;2023-07-13T05:44:57;4.53;;;4.23;;
4365;SDS011;2196;47.422;9.656;2023-07-13T05:47:24;4.83;;;4.23;;
4365;SDS011;2196;47.422;9.656;2023-07-13T05:49:51;3.70;;;3.40;;
4365;SDS011;2196;47.422;9.656;2023-07-13T05:52:18;4.30;;;3.97;;
4365;SDS011;2196;47.422;9.656;2023-07-13T05:54:45;4.10;;;3.80;;
4365;SDS011;2196;47.422;9.656;2023-07-13T05:57:13;4.87;;;4.13;;
4365;SDS011;2196;47.422;9.656;2023-07-13T05:59:40;5.30;;;4.93;;
4365;SDS011;2196;47.422;9.656;2023-07-13T06:02:08;4.57;;;4.37;;
4365;SDS011;2196;47.422;9.656;2023-07-13T06:04:36;3.60;;;3.40;;
4365;SDS011;2196;47.422;9.656;2023-07-13T06:07:03;3.50;;;3.27;;
4365;SDS011;2196;47.422;9.656;2023-07-13T06:09:30;4.67;;;4.37;;
4365;SDS011;2196;47.422;9.656;2023-07-13T06:11:58;4.60;;;4.30;;
4365;SDS011;2196;47.422;9.656;2023-07-13T06:14:26;4.70;;;4.40;;
4365;SDS011;2196;47.422;9.656;2023-07-13T06:16:53;5.87;;;4.97;;
4365;SDS011;2196;47.422;9.656;2023-07-13T06:19:20;4.10;;;3.77;;
4365;SDS011;2196;47.422;9.656;2023-07-13T06:21:47;3.97;;;3.60;;
4365;SDS011;2196;47.422;9.656;2023-07-13T06:24:14;3.60;;;3.30;;
4365;SDS011;2196;47.422;9.656;2023-07-13T06:26:41;6.53;;;3.70;;
4365;SDS011;2196;47.422;9.656;2023-07-13T06:29:08;7.03;;;4.57;;
4365;SDS011;2196;47.422;9.656;2023-07-13T06:31:36;3.40;;;3.20;;
4365;SDS011;2196;47.422;9.656;2023-07-13T06:34:03;5.00;;;3.60;;
4365;SDS011;2196;47.422;9.656;2023-07-13T06:36:30;4.47;;;4.07;;
4365;SDS011;2196;47.422;9.656;2023-07-13T06:38:57;4.60;;;4.27;;
4365;SDS011;2196;47.422;9.656;2023-07-13T06:41:24;5.37;;;4.17;;
4365;SDS011;2196;47.422;9.656;2023-07-13T06:43:51;5.37;;;4.90;;
4365;SDS011;2196;47.422;9.656;2023-07-13T06:46:19;5.83;;;5.00;;
4365;SDS011;2196;47.422;9.656;2023-07-13T06:48:48;5.43;;;5.03;;
4365;SDS011;2196;47.422;9.656;2023-07-13T06:51:15;5.57;;;4.53;;
4365;SDS011;2196;47.422;9.656;2023-07-13T06:53:42;6.83;;;4.43;;
4365;SDS011;2196;47.422;9.656;2023-07-13T06:56:09;4.53;;;4.13;;
4365;SDS011;2196;47.422;9.656;2023-07-13T06:58:37;5.10;;;4.70;;
4365;SDS011;2196;47.422;9.656;2023-07-13T07:01:04;5.27;;;4.70;;
4365;SDS011;2196;47.422;9.656;2023-07-13T07:03:31;4.50;;;4.20;;
4365;SDS011;2196;47.422;9.656;2023-07-13T07:06:01;4.87;;;4.57;;
4365;SDS011;2196;47.422;9.656;2023-07-13T07:08:33;5.77;;;5.37;;
4365;SDS011;2196;47.422;9.656;2023-07-13T07:11:00;5.50;;;5.20;;
4365;SDS011;2196;47.422;9.656;2023-07-13T07:13:27;6.37;;;5.77;;
4365;SDS011;2196;47.422;9.656;2023-07-13T07:15:55;7.73;;;5.60;;
4365;SDS011;2196;47.422;9.656;2023-07-13T07:18:22;5.80;;;5.50;;
4365;SDS011;2196;47.422;9.656;2023-07-13T07:20:49;6.40;;;6.00;;
4365;SDS011;2196;47.422;9.656;2023-07-13T07:23:17;5.27;;;4.93;;
4365;SDS011;2196;47.422;9.656;2023-07-13T07:25:44;5.43;;;5.03;;
4365;SDS011;2196;47.422;9.656;2023-07-13T07:28:12;5.87;;;5.47;;
4365;SDS011;2196;47.422;9.656;2023-07-13T07:30:43;6.10;;;5.60;;
4365;SDS011;2196;47.422;9.656;2023-07-13T07:33:10;5.73;;;5.23;;
4365;SDS011;2196;47.422;9.656;2023-07-13T07:35:37;6.18;;;5.68;;
4365;SDS011;2196;47.422;9.656;2023-07-13T07:38:04;5.17;;;4.87;;
4365;SDS011;2196;47.422;9.656;2023-07-13T07:40:32;6.03;;;5.60;;
4365;SDS011;2196;47.422;9.656;2023-07-13T07:43:03;5.73;;;5.33;;
4365;SDS011;2196;47.422;9.656;2023-07-13T07:45:30;5.40;;;5.00;;
4365;SDS011;2196;47.422;9.656;2023-07-13T07:47:57;4.90;;;4.60;;
4365;SDS011;2196;47.422;9.656;2023-07-13T07:50:24;10.27;;;5.83;;
4365;SDS011;2196;47.422;9.656;2023-07-13T07:52:51;4.80;;;4.30;;
4365;SDS011;2196;47.422;9.656;2023-07-13T07:55:19;4.87;;;4.57;;
4365;SDS011;2196;47.422;9.656;2023-07-13T07:57:47;4.83;;;4.47;;
4365;SDS011;2196;47.422;9.656;2023-07-13T08:00:14;4.70;;;4.40;;
4365;SDS011;2196;47.422;9.656;2023-07-13T08:02:42;6.13;;;5.33;;
4365;SDS011;2196;47.422;9.656;2023-07-13T08:05:10;5.53;;;4.90;;
4365;SDS011;2196;47.422;9.656;2023-07-13T08:07:40;5.27;;;4.87;;
4365;SDS011;2196;47.422;9.656;2023-07-13T08:10:07;4.80;;;4.07;;
4365;SDS011;2196;47.422;9.656;2023-07-13T08:12:35;6.40;;;4.60;;
4365;SDS011;2196;47.422;9.656;2023-07-13T08:15:09;5.33;;;4.87;;
4365;SDS011;2196;47.422;9.656;2023-07-13T08:17:38;6.10;;;5.27;;
4365;SDS011;2196;47.422;9.656;2023-07-13T08:20:06;6.07;;;5.47;;
4365;SDS011;2196;47.422;9.656;2023-07-13T08:22:37;5.77;;;5.37;;
4365;SDS011;2196;47.422;9.656;2023-07-13T08:25:04;4.73;;;4.50;;
4365;SDS011;2196;47.422;9.656;2023-07-13T08:27:33;5.70;;;5.30;;
4365;SDS011;2196;47.422;9.656;2023-07-13T08:30:00;5.57;;;5.03;;
4365;SDS011;2196;47.422;9.656;2023-07-13T08:32:28;4.60;;;4.30;;
4365;SDS011;2196;47.422;9.656;2023-07-13T08:34:55;4.13;;;3.80;;
4365;SDS011;2196;47.422;9.656;2023-07-13T08:37:22;4.13;;;3.47;;
4365;SDS011;2196;47.422;9.656;2023-07-13T08:39:49;2.87;;;2.73;;
4365;SDS011;2196;47.422;9.656;2023-07-13T08:42:20;2.77;;;2.60;;
4365;SDS011;2196;47.422;9.656;2023-07-13T08:45:00;2.30;;;2.20;;
4365;SDS011;2196;47.422;9.656;2023-07-13T08:47:38;2.80;;;2.70;;
4365;SDS011;2196;47.422;9.656;2023-07-13T08:50:12;2.77;;;2.67;;
4365;SDS011;2196;47.422;9.656;2023-07-13T08:52:43;3.33;;;2.93;;
4365;SDS011;2196;47.422;9.656;2023-07-13T08:55:12;2.73;;;2.53;;
4365;SDS011;2196;47.422;9.656;2023-07-13T08:57:42;3.60;;;2.83;;
4365;SDS011;2196;47.422;9.656;2023-07-13T09:00:12;2.60;;;2.50;;
4365;SDS011;2196;47.422;9.656;2023-07-13T09:02:43;3.10;;;2.83;;
4365;SDS011;2196;47.422;9.656;2023-07-13T09:05:13;2.63;;;2.53;;
4365;SDS011;2196;47.422;9.656;2023-07-13T09:07:56;2.90;;;2.80;;
4365;SDS011;2196;47.422;9.656;2023-07-13T09:10:29;3.40;;;3.20;;
4365;SDS011;2196;47.422;9.656;2023-07-13T09:13:09;2.60;;;2.40;;
4365;SDS011;2196;47.422;9.656;2023-07-13T09:15:46;3.20;;;2.60;;
4365;SDS011;2196;47.422;9.656;2023-07-13T09:18:18;3.07;;;2.87;;
4365;SDS011;2196;47.422;9.656;2023-07-13T09:20:50;2.73;;;2.53;;
4365;SDS011;2196;47.422;9.656;2023-07-13T09:23:20;4.27;;;2.77;;
4365;SDS011;2196;47.422;9.656;2023-07-13T09:25:49;2.13;;;1.83;;
4365;SDS011;2196;47.422;9.656;2023-07-13T09:28:22;3.30;;;3.00;;
4365;SDS011;2196;47.422;9.656;2023-07-13T09:30:52;2.73;;;2.53;;
4365;SDS011;2196;47.422;9.656;2023-07-13T09:33:25;3.67;;;2.57;;
4365;SDS011;2196;47.422;9.656;2023-07-13T09:35:54;2.53;;;2.43;;
4365;SDS011;2196;47.422;9.656;2023-07-13T09:38:22;5.07;;;2.50;;
4365;SDS011;2196;47.422;9.656;2023-07-13T09:40:56;2.60;;;2.30;;
4365;SDS011;2196;47.422;9.656;2023-07-13T09:43:34;2.70;;;2.50;;
4365;SDS011;2196;47.422;9.656;2023-07-13T09:46:01;7.73;;;2.60;;
4365;SDS011;2196;47.422;9.656;2023-07-13T09:48:34;2.00;;;1.90;;
4365;SDS011;2196;47.422;9.656;2023-07-13T09:51:06;2.80;;;2.53;;
4365;SDS011;2196;47.422;9.656;2023-07-13T09:53:41;2.37;;;2.20;;
4365;SDS011;2196;47.422;9.656;2023-07-13T09:56:18;2.20;;;2.07;;
4365;SDS011;2196;47.422;9.656;2023-07-13T09:58:46;3.63;;;3.33;;
4365;SDS011;2196;47.422;9.656;2023-07-13T10:01:13;4.83;;;3.63;;
4365;SDS011;2196;47.422;9.656;2023-07-13T10:03:51;5.00;;;3.03;;
4365;SDS011;2196;47.422;9.656;2023-07-13T10:06:19;3.47;;;2.73;;
4365;SDS011;2196;47.422;9.656;2023-07-13T10:08:49;3.23;;;2.90;;
4365;SDS011;2196;47.422;9.656;2023-07-13T10:11:18;2.93;;;2.83;;
4365;SDS011;2196;47.422;9.656;2023-07-13T10:13:50;3.33;;;2.63;;
4365;SDS011;2196;47.422;9.656;2023-07-13T10:16:19;3.37;;;3.17;;
4365;SDS011;2196;47.422;9.656;2023-07-13T10:18:48;3.17;;;2.97;;
4365;SDS011;2196;47.422;9.656;2023-07-13T10:21:18;3.50;;;2.37;;
4365;SDS011;2196;47.422;9.656;2023-07-13T10:23:47;3.90;;;3.37;;
4365;SDS011;2196;47.422;9.656;2023-07-13T10:26:19;2.33;;;2.13;;
4365;SDS011;2196;47.422;9.656;2023-07-13T10:28:51;3.67;;;3.07;;
4365;SDS011;2196;47.422;9.656;2023-07-13T10:31:20;2.20;;;2.10;;
4365;SDS011;2196;47.422;9.656;2023-07-13T10:33:50;3.60;;;2.50;;
4365;SDS011;2196;47.422;9.656;2023-07-13T10:36:19;2.30;;;2.20;;
4365;SDS011;2196;47.422;9.656;2023-07-13T10:38:54;2.57;;;2.37;;
4365;SDS011;2196;47.422;9.656;2023-07-13T10:41:23;2.63;;;1.97;;
4365;SDS011;2196;47.422;9.656;2023-07-13T10:43:53;1.93;;;1.80;;
4365;SDS011;2196;47.422;9.656;2023-07-13T10:46:23;3.03;;;2.00;;
4365;SDS011;2196;47.422;9.656;2023-07-13T10:48:55;2.07;;;1.97;;
4365;SDS011;2196;47.422;9.656;2023-07-13T10:51:25;2.13;;;2.03;;
4365;SDS011;2196;47.422;9.656;2023-07-13T10:54:15;4.57;;;1.87;;
4365;SDS011;2196;47.422;9.656;2023-07-13T10:56:44;1.43;;;1.43;;
4365;SDS011;2196;47.422;9.656;2023-07-13T10:59:13;1.60;;;1.50;;
4365;SDS011;2196;47.422;9.656;2023-07-13T11:01:48;2.17;;;1.97;;
4365;SDS011;2196;47.422;9.656;2023-07-13T11:04:21;1.53;;;1.37;;
4365;SDS011;2196;47.422;9.656;2023-07-13T11:06:50;1.83;;;1.50;;
4365;SDS011;2196;47.422;9.656;2023-07-13T11:09:32;3.60;;;2.00;;
4365;SDS011;2196;47.422;9.656;2023-07-13T11:12:05;1.83;;;1.73;;
4365;SDS011;2196;47.422;9.656;2023-07-13T11:14:41;2.47;;;2.30;;
4365;SDS011;2196;47.422;9.656;2023-07-13T11:20:18;2.33;;;2.10;;
4365;SDS011;2196;47.422;9.656;2023-07-13T11:22:49;3.50;;;1.93;;
4365;SDS011;2196;47.422;9.656;2023-07-13T11:25:21;1.47;;;1.47;;
4365;SDS011;2196;47.422;9.656;2023-07-13T11:28:03;1.97;;;1.87;;
4365;SDS011;2196;47.422;9.656;2023-07-13T11:30:43;1.63;;;1.53;;
4365;SDS011;2196;47.422;9.656;2023-07-13T11:33:14;1.60;;;1.50;;
4365;SDS011;2196;47.422;9.656;2023-07-13T11:35:45;1.60;;;1.40;;
4365;SDS011;2196;47.422;9.656;2023-07-13T11:38:17;1.83;;;1.77;;
4365;SDS011;2196;47.422;9.656;2023-07-13T11:40:46;1.83;;;1.70;;
4365;SDS011;2196;47.422;9.656;2023-07-13T11:43:16;2.40;;;1.80;;
4365;SDS011;2196;47.422;9.656;2023-07-13T11:45:43;2.00;;;1.70;;
4365;SDS011;2196;47.422;9.656;2023-07-13T11:48:24;1.70;;;1.60;;
4365;SDS011;2196;47.422;9.656;2023-07-13T11:50:55;2.73;;;1.30;;
4365;SDS011;2196;47.422;9.656;2023-07-13T11:53:26;1.73;;;1.67;;
4365;SDS011;2196;47.422;9.656;2023-07-13T11:55:55;3.43;;;1.53;;
4365;SDS011;2196;47.422;9.656;2023-07-13T11:58:24;2.27;;;2.07;;
4365;SDS011;2196;47.422;9.656;2023-07-13T12:00:53;2.00;;;1.90;;
4365;SDS011;2196;47.422;9.656;2023-07-13T12:03:24;1.73;;;1.63;;
4365;SDS011;2196;47.422;9.656;2023-07-13T12:05:56;1.30;;;1.30;;
4365;SDS011;2196;47.422;9.656;2023-07-13T12:08:28;1.70;;;1.60;;
4365;SDS011;2196;47.422;9.656;2023-07-13T12:10:59;1.80;;;1.47;;
4365;SDS011;2196;47.422;9.656;2023-07-13T12:13:34;1.50;;;1.40;;
4365;SDS011;2196;47.422;9.656;2023-07-13T12:16:07;1.60;;;1.50;;
4365;SDS011;2196;47.422;9.656;2023-07-13T12:18:41;1.67;;;1.57;;
4365;SDS011;2196;47.422;9.656;2023-07-13T12:21:14;1.30;;;1.20;;
4365;SDS011;2196;47.422;9.656;2023-07-13T12:23:45;3.03;;;2.17;;
4365;SDS011;2196;47.422;9.656;2023-07-13T12:26:15;1.43;;;1.20;;
4365;SDS011;2196;47.422;9.656;2023-07-13T12:28:45;2.97;;;1.73;;
4365;SDS011;2196;47.422;9.656;2023-07-13T12:31:23;2.57;;;1.20;;
4365;SDS011;2196;47.422;9.656;2023-07-13T12:33:59;1.93;;;1.80;;
4365;SDS011;2196;47.422;9.656;2023-07-13T12:36:30;1.90;;;1.80;;
4365;SDS011;2196;47.422;9.656;2023-07-13T12:39:00;2.23;;;1.20;;
4365;SDS011;2196;47.422;9.656;2023-07-13T12:41:38;1.93;;;1.23;;
4365;SDS011;2196;47.422;9.656;2023-07-13T12:44:08;0.80;;;0.80;;
4365;SDS011;2196;47.422;9.656;2023-07-13T12:46:38;1.60;;;1.47;;
4365;SDS011;2196;47.422;9.656;2023-07-13T12:49:06;1.63;;;1.53;;
4365;SDS011;2196;47.422;9.656;2023-07-13T12:51:35;1.40;;;1.30;;
4365;SDS011;2196;47.422;9.656;2023-07-13T12:54:12;1.77;;;1.43;;
4365;SDS011;2196;47.422;9.656;2023-07-13T12:56:42;1.27;;;1.27;;
4365;SDS011;2196;47.422;9.656;2023-07-13T12:59:14;1.83;;;1.73;;
4365;SDS011;2196;47.422;9.656;2023-07-13T13:01:45;1.17;;;1.13;;
4365;SDS011;2196;47.422;9.656;2023-07-13T13:04:14;2.50;;;1.07;;
4365;SDS011;2196;47.422;9.656;2023-07-13T13:06:48;3.60;;;1.33;;
4365;SDS011;2196;47.422;9.656;2023-07-13T13:09:16;1.80;;;1.20;;
4365;SDS011;2196;47.422;9.656;2023-07-13T13:11:45;1.40;;;1.40;;
4365;SDS011;2196;47.422;9.656;2023-07-13T13:14:12;1.77;;;1.23;;
4365;SDS011;2196;47.422;9.656;2023-07-13T13:16:43;1.63;;;1.53;;
4365;SDS011;2196;47.422;9.656;2023-07-13T13:19:15;1.20;;;1.10;;
4365;SDS011;2196;47.422;9.656;2023-07-13T13:21:45;1.17;;;1.07;;
4365;SDS011;2196;47.422;9.656;2023-07-13T13:24:14;1.80;;;1.07;;
4365;SDS011;2196;47.422;9.656;2023-07-13T13:26:43;1.30;;;1.30;;
4365;SDS011;2196;47.422;9.656;2023-07-13T13:29:15;1.87;;;1.77;;
4365;SDS011;2196;47.422;9.656;2023-07-13T13:31:44;0.97;;;0.97;;
4365;SDS011;2196;47.422;9.656;2023-07-13T13:34:12;1.43;;;1.27;;
4365;SDS011;2196;47.422;9.656;2023-07-13T13:36:40;1.30;;;1.20;;
4365;SDS011;2196;47.422;9.656;2023-07-13T13:39:16;1.23;;;1.23;;
4365;SDS011;2196;47.422;9.656;2023-07-13T13:41:46;1.40;;;1.40;;
4365;SDS011;2196;47.422;9.656;2023-07-13T13:44:14;1.60;;;1.50;;
4365;SDS011;2196;47.422;9.656;2023-07-13T13:46:43;1.37;;;1.27;;
4365;SDS011;2196;47.422;9.656;2023-07-13T13:49:13;2.60;;;0.97;;
4365;SDS011;2196;47.422;9.656;2023-07-13T13:51:42;1.73;;;1.73;;
4365;SDS011;2196;47.422;9.656;2023-07-13T13:54:10;4.00;;;2.90;;
4365;SDS011;2196;47.422;9.656;2023-07-13T13:56:40;0.90;;;0.90;;
4365;SDS011;2196;47.422;9.656;2023-07-13T13:59:08;1.40;;;1.20;;
4365;SDS011;2196;47.422;9.656;2023-07-13T14:01:35;1.20;;;1.20;;
4365;SDS011;2196;47.422;9.656;2023-07-13T14:04:03;1.43;;;1.33;;
4365;SDS011;2196;47.422;9.656;2023-07-13T14:06:32;2.23;;;1.73;;
4365;SDS011;2196;47.422;9.656;2023-07-13T14:09:00;2.10;;;1.60;;
4365;SDS011;2196;47.422;9.656;2023-07-13T14:11:27;1.30;;;1.20;;
4365;SDS011;2196;47.422;9.656;2023-07-13T14:13:59;1.33;;;1.20;;
4365;SDS011;2196;47.422;9.656;2023-07-13T14:16:29;1.73;;;1.50;;
4365;SDS011;2196;47.422;9.656;2023-07-13T14:18:58;1.40;;;1.40;;
4365;SDS011;2196;47.422;9.656;2023-07-13T14:21:26;1.30;;;1.20;;
4365;SDS011;2196;47.422;9.656;2023-07-13T14:23:55;1.10;;;1.10;;
4365;SDS011;2196;47.422;9.656;2023-07-13T14:26:23;3.00;;;1.67;;
4365;SDS011;2196;47.422;9.656;2023-07-13T14:28:52;1.57;;;1.50;;
4365;SDS011;2196;47.422;9.656;2023-07-13T14:31:22;1.60;;;1.00;;
4365;SDS011;2196;47.422;9.656;2023-07-13T14:33:54;1.10;;;1.00;;
4365;SDS011;2196;47.422;9.656;2023-07-13T14:36:23;2.37;;;1.37;;
4365;SDS011;2196;47.422;9.656;2023-07-13T14:38:54;1.30;;;1.30;;
4365;SDS011;2196;47.422;9.656;2023-07-13T14:41:21;1.27;;;1.20;;
4365;SDS011;2196;47.422;9.656;2023-07-13T14:43:48;1.53;;;1.43;;
4365;SDS011;2196;47.422;9.656;2023-07-13T14:46:18;1.17;;;1.17;;
4365;SDS011;2196;47.422;9.656;2023-07-13T14:48:53;1.37;;;1.30;;
4365;SDS011;2196;47.422;9.656;2023-07-13T14:51:27;2.40;;;1.60;;
4365;SDS011;2196;47.422;9.656;2023-07-13T14:53:54;1.03;;;1.00;;
4365;SDS011;2196;47.422;9.656;2023-07-13T14:56:20;3.33;;;1.30;;
4365;SDS011;2196;47.422;9.656;2023-07-13T14:58:47;0.70;;;0.70;;
4365;SDS011;2196;47.422;9.656;2023-07-13T15:01:14;2.10;;;1.17;;
4365;SDS011;2196;47.422;9.656;2023-07-13T15:03:44;1.43;;;1.33;;
4365;SDS011;2196;47.422;9.656;2023-07-13T15:06:13;1.10;;;1.10;;
4365;SDS011;2196;47.422;9.656;2023-07-13T15:08:41;1.33;;;1.13;;
4365;SDS011;2196;47.422;9.656;2023-07-13T15:11:08;1.10;;;1.10;;
4365;SDS011;2196;47.422;9.656;2023-07-13T15:13:37;1.03;;;1.00;;
4365;SDS011;2196;47.422;9.656;2023-07-13T15:16:04;2.23;;;1.20;;
4365;SDS011;2196;47.422;9.656;2023-07-13T15:18:37;1.20;;;1.20;;
4365;SDS011;2196;47.422;9.656;2023-07-13T15:21:08;0.90;;;0.90;;
4365;SDS011;2196;47.422;9.656;2023-07-13T15:23:39;0.93;;;0.77;;
4365;SDS011;2196;47.422;9.656;2023-07-13T15:26:07;1.30;;;1.20;;
4365;SDS011;2196;47.422;9.656;2023-07-13T15:28:38;1.27;;;1.20;;
4365;SDS011;2196;47.422;9.656;2023-07-13T15:31:05;2.20;;;1.57;;